sensor_id;sensor_type;location;lat;lon;timestamp;P1;durP1;ratioP1;P2;durP2;ratioP2
52266;SDS011;38223;50.940;4.034;2022-08-16T00:00:12;10.30;;;8.80;;
52266;SDS011;38223;50.940;4.034;2022-08-16T00:02:45;12.55;;;9.05;;
52266;SDS011;38223;50.940;4.034;2022-08-16T00:05:18;11.63;;;10.40;;
52266;SDS011;38223;50.940;4.034;2022-08-16T00:07:53;11.93;;;9.48;;
52266;SDS011;38223;50.940;4.034;2022-08-16T00:10:25;10.18;;;8.80;;
52266;SDS011;38223;50.940;4.034;2022-08-16T00:12:59;11.10;;;9.18;;
52266;SDS011;38223;50.940;4.034;2022-08-16T00:15:36;11.55;;;8.78;;
52266;SDS011;38223;50.940;4.034;2022-08-16T00:18:11;9.75;;;8.88;;
52266;SDS011;38223;50.940;4.034;2022-08-16T00:20:47;15.13;;;9.05;;
52266;SDS011;38223;50.940;4.034;2022-08-16T00:23:16;11.68;;;8.80;;
52266;SDS011;38223;50.940;4.034;2022-08-16T00:25:49;10.82;;;9.48;;
52266;SDS011;38223;50.940;4.034;2022-08-16T00:28:24;10.05;;;8.33;;
52266;SDS011;38223;50.940;4.034;2022-08-16T00:30:58;10.03;;;9.03;;
52266;SDS011;38223;50.940;4.034;2022-08-16T00:33:28;9.33;;;8.53;;
52266;SDS011;38223;50.940;4.034;2022-08-16T00:35:59;10.43;;;9.30;;
52266;SDS011;38223;50.940;4.034;2022-08-16T00:38:30;10.08;;;9.28;;
52266;SDS011;38223;50.940;4.034;2022-08-16T00:41:04;11.57;;;9.25;;
52266;SDS011;38223;50.940;4.034;2022-08-16T00:43:33;10.45;;;9.08;;
52266;SDS011;38223;50.940;4.034;2022-08-16T00:48:55;9.38;;;8.55;;
52266;SDS011;38223;50.940;4.034;2022-08-16T00:51:26;10.82;;;9.20;;
52266;SDS011;38223;50.940;4.034;2022-08-16T00:54:02;10.38;;;9.45;;
52266;SDS011;38223;50.940;4.034;2022-08-16T00:56:36;10.93;;;9.68;;
52266;SDS011;38223;50.940;4.034;2022-08-16T00:59:10;10.43;;;9.18;;
52266;SDS011;38223;50.940;4.034;2022-08-16T01:01:47;10.82;;;9.73;;
52266;SDS011;38223;50.940;4.034;2022-08-16T01:04:19;10.53;;;9.45;;
52266;SDS011;38223;50.940;4.034;2022-08-16T01:09:40;12.78;;;8.95;;
52266;SDS011;38223;50.940;4.034;2022-08-16T01:12:15;9.88;;;8.95;;
52266;SDS011;38223;50.940;4.034;2022-08-16T01:14:47;9.83;;;8.93;;
52266;SDS011;38223;50.940;4.034;2022-08-16T01:17:21;10.48;;;9.40;;
52266;SDS011;38223;50.940;4.034;2022-08-16T01:19:53;12.20;;;9.38;;
52266;SDS011;38223;50.940;4.034;2022-08-16T01:22:38;10.45;;;9.55;;
52266;SDS011;38223;50.940;4.034;2022-08-16T01:25:13;13.85;;;9.38;;
52266;SDS011;38223;50.940;4.034;2022-08-16T01:27:46;14.98;;;9.58;;
52266;SDS011;38223;50.940;4.034;2022-08-16T01:30:20;9.78;;;8.95;;
52266;SDS011;38223;50.940;4.034;2022-08-16T01:32:57;10.32;;;9.35;;
52266;SDS011;38223;50.940;4.034;2022-08-16T01:35:34;12.95;;;9.50;;
52266;SDS011;38223;50.940;4.034;2022-08-16T01:38:18;10.60;;;9.68;;
52266;SDS011;38223;50.940;4.034;2022-08-16T01:40:49;11.18;;;10.13;;
52266;SDS011;38223;50.940;4.034;2022-08-16T01:43:25;11.15;;;9.83;;
52266;SDS011;38223;50.940;4.034;2022-08-16T01:45:56;11.50;;;10.30;;
52266;SDS011;38223;50.940;4.034;2022-08-16T01:48:32;11.43;;;10.38;;
52266;SDS011;38223;50.940;4.034;2022-08-16T01:51:06;11.05;;;9.95;;
52266;SDS011;38223;50.940;4.034;2022-08-16T01:53:40;11.70;;;10.50;;
52266;SDS011;38223;50.940;4.034;2022-08-16T01:56:12;11.60;;;10.65;;
52266;SDS011;38223;50.940;4.034;2022-08-16T01:58:47;11.45;;;10.45;;
52266;SDS011;38223;50.940;4.034;2022-08-16T02:01:15;11.70;;;10.58;;
52266;SDS011;38223;50.940;4.034;2022-08-16T02:03:46;11.78;;;10.68;;
52266;SDS011;38223;50.940;4.034;2022-08-16T02:06:18;11.50;;;10.60;;
52266;SDS011;38223;50.940;4.034;2022-08-16T02:08:52;10.23;;;9.33;;
52266;SDS011;38223;50.940;4.034;2022-08-16T02:11:27;11.18;;;10.15;;
52266;SDS011;38223;50.940;4.034;2022-08-16T02:13:59;11.63;;;10.68;;
52266;SDS011;38223;50.940;4.034;2022-08-16T02:16:33;11.18;;;10.10;;
52266;SDS011;38223;50.940;4.034;2022-08-16T02:19:24;11.33;;;10.32;;
52266;SDS011;38223;50.940;4.034;2022-08-16T02:21:58;13.20;;;10.38;;
52266;SDS011;38223;50.940;4.034;2022-08-16T02:24:31;11.35;;;10.20;;
52266;SDS011;38223;50.940;4.034;2022-08-16T02:27:03;11.05;;;10.03;;
52266;SDS011;38223;50.940;4.034;2022-08-16T02:29:34;12.20;;;10.58;;
52266;SDS011;38223;50.940;4.034;2022-08-16T02:32:09;12.30;;;11.40;;
52266;SDS011;38223;50.940;4.034;2022-08-16T02:34:41;12.58;;;11.22;;
52266;SDS011;38223;50.940;4.034;2022-08-16T02:37:13;12.88;;;11.78;;
52266;SDS011;38223;50.940;4.034;2022-08-16T02:39:46;13.25;;;11.95;;
52266;SDS011;38223;50.940;4.034;2022-08-16T02:42:20;15.45;;;11.35;;
52266;SDS011;38223;50.940;4.034;2022-08-16T02:44:50;12.33;;;11.43;;
52266;SDS011;38223;50.940;4.034;2022-08-16T02:47:22;14.20;;;12.20;;
52266;SDS011;38223;50.940;4.034;2022-08-16T02:49:56;13.00;;;11.83;;
52266;SDS011;38223;50.940;4.034;2022-08-16T02:52:30;13.68;;;12.37;;
52266;SDS011;38223;50.940;4.034;2022-08-16T02:55:01;14.93;;;11.65;;
52266;SDS011;38223;50.940;4.034;2022-08-16T02:57:36;13.62;;;12.30;;
52266;SDS011;38223;50.940;4.034;2022-08-16T03:00:07;16.70;;;12.40;;
52266;SDS011;38223;50.940;4.034;2022-08-16T03:02:45;13.60;;;12.35;;
52266;SDS011;38223;50.940;4.034;2022-08-16T03:05:14;13.58;;;12.47;;
52266;SDS011;38223;50.940;4.034;2022-08-16T03:07:48;14.78;;;13.35;;
52266;SDS011;38223;50.940;4.034;2022-08-16T03:10:24;15.55;;;14.20;;
52266;SDS011;38223;50.940;4.034;2022-08-16T03:12:56;15.40;;;14.00;;
52266;SDS011;38223;50.940;4.034;2022-08-16T03:15:26;16.67;;;14.83;;
52266;SDS011;38223;50.940;4.034;2022-08-16T03:18:00;14.70;;;13.03;;
52266;SDS011;38223;50.940;4.034;2022-08-16T03:20:30;15.18;;;13.93;;
52266;SDS011;38223;50.940;4.034;2022-08-16T03:23:05;16.93;;;13.90;;
52266;SDS011;38223;50.940;4.034;2022-08-16T03:25:37;14.40;;;13.13;;
52266;SDS011;38223;50.940;4.034;2022-08-16T03:28:10;15.45;;;14.05;;
52266;SDS011;38223;50.940;4.034;2022-08-16T03:30:37;16.25;;;14.53;;
52266;SDS011;38223;50.940;4.034;2022-08-16T03:33:12;16.45;;;14.90;;
52266;SDS011;38223;50.940;4.034;2022-08-16T03:35:43;16.02;;;14.65;;
52266;SDS011;38223;50.940;4.034;2022-08-16T03:38:20;16.97;;;15.15;;
52266;SDS011;38223;50.940;4.034;2022-08-16T03:40:50;16.65;;;15.25;;
52266;SDS011;38223;50.940;4.034;2022-08-16T03:43:26;16.57;;;15.13;;
52266;SDS011;38223;50.940;4.034;2022-08-16T03:45:57;18.20;;;16.40;;
52266;SDS011;38223;50.940;4.034;2022-08-16T03:48:36;17.02;;;15.35;;
52266;SDS011;38223;50.940;4.034;2022-08-16T03:51:04;17.30;;;15.70;;
52266;SDS011;38223;50.940;4.034;2022-08-16T03:53:39;18.05;;;16.45;;
52266;SDS011;38223;50.940;4.034;2022-08-16T03:59:00;18.45;;;16.70;;
52266;SDS011;38223;50.940;4.034;2022-08-16T04:01:32;18.62;;;16.97;;
52266;SDS011;38223;50.940;4.034;2022-08-16T04:04:08;18.23;;;16.73;;
52266;SDS011;38223;50.940;4.034;2022-08-16T04:06:38;18.87;;;16.93;;
52266;SDS011;38223;50.940;4.034;2022-08-16T04:09:10;21.70;;;17.25;;
52266;SDS011;38223;50.940;4.034;2022-08-16T04:11:40;22.00;;;17.92;;
52266;SDS011;38223;50.940;4.034;2022-08-16T04:14:15;18.77;;;16.95;;
52266;SDS011;38223;50.940;4.034;2022-08-16T04:16:47;19.23;;;17.52;;
52266;SDS011;38223;50.940;4.034;2022-08-16T04:19:21;19.12;;;16.93;;
52266;SDS011;38223;50.940;4.034;2022-08-16T04:21:54;17.92;;;16.37;;
52266;SDS011;38223;50.940;4.034;2022-08-16T04:24:35;19.80;;;17.37;;
52266;SDS011;38223;50.940;4.034;2022-08-16T04:27:03;20.27;;;17.07;;
52266;SDS011;38223;50.940;4.034;2022-08-16T04:29:41;18.37;;;16.62;;
52266;SDS011;38223;50.940;4.034;2022-08-16T04:32:11;18.73;;;16.93;;
52266;SDS011;38223;50.940;4.034;2022-08-16T04:34:44;18.45;;;16.50;;
52266;SDS011;38223;50.940;4.034;2022-08-16T04:37:17;17.82;;;16.00;;
52266;SDS011;38223;50.940;4.034;2022-08-16T04:39:52;19.48;;;17.45;;
52266;SDS011;38223;50.940;4.034;2022-08-16T04:42:21;20.85;;;17.35;;
52266;SDS011;38223;50.940;4.034;2022-08-16T04:44:58;19.32;;;17.42;;
52266;SDS011;38223;50.940;4.034;2022-08-16T04:47:30;19.35;;;17.45;;
52266;SDS011;38223;50.940;4.034;2022-08-16T04:50:03;22.15;;;17.00;;
52266;SDS011;38223;50.940;4.034;2022-08-16T04:52:43;19.62;;;17.60;;
52266;SDS011;38223;50.940;4.034;2022-08-16T04:55:13;18.98;;;16.77;;
52266;SDS011;38223;50.940;4.034;2022-08-16T04:57:49;19.17;;;17.27;;
52266;SDS011;38223;50.940;4.034;2022-08-16T05:00:26;20.00;;;18.00;;
52266;SDS011;38223;50.940;4.034;2022-08-16T05:03:05;20.15;;;17.87;;
52266;SDS011;38223;50.940;4.034;2022-08-16T05:05:31;19.50;;;17.70;;
52266;SDS011;38223;50.940;4.034;2022-08-16T05:08:10;20.77;;;18.70;;
52266;SDS011;38223;50.940;4.034;2022-08-16T05:10:40;21.48;;;19.40;;
52266;SDS011;38223;50.940;4.034;2022-08-16T05:13:10;21.07;;;18.85;;
52266;SDS011;38223;50.940;4.034;2022-08-16T05:15:46;22.42;;;19.25;;
52266;SDS011;38223;50.940;4.034;2022-08-16T05:18:16;20.50;;;18.65;;
52266;SDS011;38223;50.940;4.034;2022-08-16T05:20:48;21.75;;;19.65;;
52266;SDS011;38223;50.940;4.034;2022-08-16T05:25:48;21.73;;;19.10;;
52266;SDS011;38223;50.940;4.034;2022-08-16T05:28:19;30.55;;;19.95;;
52266;SDS011;38223;50.940;4.034;2022-08-16T05:30:51;24.98;;;19.10;;
52266;SDS011;38223;50.940;4.034;2022-08-16T05:33:23;20.68;;;18.25;;
52266;SDS011;38223;50.940;4.034;2022-08-16T05:35:55;20.80;;;18.48;;
52266;SDS011;38223;50.940;4.034;2022-08-16T05:38:27;19.98;;;17.92;;
52266;SDS011;38223;50.940;4.034;2022-08-16T05:40:59;20.88;;;18.65;;
52266;SDS011;38223;50.940;4.034;2022-08-16T05:43:31;22.87;;;18.32;;
52266;SDS011;38223;50.940;4.034;2022-08-16T05:46:03;20.70;;;17.75;;
52266;SDS011;38223;50.940;4.034;2022-08-16T05:48:36;20.97;;;18.50;;
52266;SDS011;38223;50.940;4.034;2022-08-16T05:51:07;20.65;;;18.20;;
52266;SDS011;38223;50.940;4.034;2022-08-16T05:53:36;19.60;;;17.57;;
52266;SDS011;38223;50.940;4.034;2022-08-16T05:56:09;19.70;;;17.98;;
52266;SDS011;38223;50.940;4.034;2022-08-16T05:58:44;24.35;;;17.32;;
52266;SDS011;38223;50.940;4.034;2022-08-16T06:01:15;19.10;;;16.93;;
52266;SDS011;38223;50.940;4.034;2022-08-16T06:03:48;20.57;;;16.73;;
52266;SDS011;38223;50.940;4.034;2022-08-16T06:06:20;24.98;;;17.52;;
52266;SDS011;38223;50.940;4.034;2022-08-16T06:08:51;20.52;;;18.15;;
52266;SDS011;38223;50.940;4.034;2022-08-16T06:11:22;21.05;;;17.00;;
52266;SDS011;38223;50.940;4.034;2022-08-16T06:13:57;20.90;;;16.40;;
52266;SDS011;38223;50.940;4.034;2022-08-16T06:16:27;21.02;;;16.87;;
52266;SDS011;38223;50.940;4.034;2022-08-16T06:19:01;24.82;;;15.63;;
52266;SDS011;38223;50.940;4.034;2022-08-16T06:21:36;20.48;;;15.28;;
52266;SDS011;38223;50.940;4.034;2022-08-16T06:24:11;22.98;;;16.45;;
52266;SDS011;38223;50.940;4.034;2022-08-16T06:26:41;21.12;;;15.50;;
52266;SDS011;38223;50.940;4.034;2022-08-16T06:29:11;19.70;;;15.50;;
52266;SDS011;38223;50.940;4.034;2022-08-16T06:31:42;17.32;;;15.55;;
52266;SDS011;38223;50.940;4.034;2022-08-16T06:34:19;19.77;;;14.87;;
52266;SDS011;38223;50.940;4.034;2022-08-16T06:36:56;21.62;;;14.93;;
52266;SDS011;38223;50.940;4.034;2022-08-16T06:39:31;16.45;;;14.65;;
52266;SDS011;38223;50.940;4.034;2022-08-16T06:42:00;20.02;;;14.20;;
52266;SDS011;38223;50.940;4.034;2022-08-16T06:44:33;20.02;;;15.28;;
52266;SDS011;38223;50.940;4.034;2022-08-16T06:47:09;18.30;;;14.03;;
52266;SDS011;38223;50.940;4.034;2022-08-16T06:49:39;19.82;;;14.25;;
52266;SDS011;38223;50.940;4.034;2022-08-16T06:52:14;21.15;;;14.63;;
52266;SDS011;38223;50.940;4.034;2022-08-16T06:54:43;15.10;;;13.40;;
52266;SDS011;38223;50.940;4.034;2022-08-16T06:57:18;16.52;;;12.98;;
52266;SDS011;38223;50.940;4.034;2022-08-16T06:59:48;16.37;;;12.40;;
52266;SDS011;38223;50.940;4.034;2022-08-16T07:02:20;14.93;;;12.03;;
52266;SDS011;38223;50.940;4.034;2022-08-16T07:04:50;11.95;;;10.82;;
52266;SDS011;38223;50.940;4.034;2022-08-16T07:07:23;20.05;;;12.07;;
52266;SDS011;38223;50.940;4.034;2022-08-16T07:09:51;24.92;;;12.00;;
52266;SDS011;38223;50.940;4.034;2022-08-16T07:12:22;12.37;;;11.10;;
52266;SDS011;38223;50.940;4.034;2022-08-16T07:14:55;14.35;;;11.00;;
52266;SDS011;38223;50.940;4.034;2022-08-16T07:17:28;13.30;;;10.78;;
52266;SDS011;38223;50.940;4.034;2022-08-16T07:19:58;12.30;;;11.28;;
52266;SDS011;38223;50.940;4.034;2022-08-16T07:22:35;11.05;;;10.05;;
52266;SDS011;38223;50.940;4.034;2022-08-16T07:25:08;11.70;;;9.90;;
52266;SDS011;38223;50.940;4.034;2022-08-16T07:27:44;11.43;;;10.30;;
52266;SDS011;38223;50.940;4.034;2022-08-16T07:30:18;10.65;;;9.73;;
52266;SDS011;38223;50.940;4.034;2022-08-16T07:32:48;10.50;;;9.58;;
52266;SDS011;38223;50.940;4.034;2022-08-16T07:35:20;11.55;;;10.35;;
52266;SDS011;38223;50.940;4.034;2022-08-16T07:37:55;10.32;;;9.43;;
52266;SDS011;38223;50.940;4.034;2022-08-16T07:40:27;14.07;;;10.38;;
52266;SDS011;38223;50.940;4.034;2022-08-16T07:43:06;11.93;;;10.70;;
52266;SDS011;38223;50.940;4.034;2022-08-16T07:45:38;11.30;;;10.13;;
52266;SDS011;38223;50.940;4.034;2022-08-16T07:48:12;11.28;;;9.68;;
52266;SDS011;38223;50.940;4.034;2022-08-16T07:50:40;14.35;;;8.83;;
52266;SDS011;38223;50.940;4.034;2022-08-16T07:53:12;12.58;;;9.08;;
52266;SDS011;38223;50.940;4.034;2022-08-16T07:55:42;11.20;;;9.65;;
52266;SDS011;38223;50.940;4.034;2022-08-16T07:58:17;10.25;;;9.23;;
52266;SDS011;38223;50.940;4.034;2022-08-16T08:00:47;13.58;;;8.55;;
52266;SDS011;38223;50.940;4.034;2022-08-16T08:03:20;8.78;;;7.87;;
52266;SDS011;38223;50.940;4.034;2022-08-16T08:05:54;9.78;;;8.83;;
52266;SDS011;38223;50.940;4.034;2022-08-16T08:08:23;11.68;;;8.73;;
52266;SDS011;38223;50.940;4.034;2022-08-16T08:10:53;10.00;;;9.28;;
52266;SDS011;38223;50.940;4.034;2022-08-16T08:13:24;9.63;;;8.70;;
52266;SDS011;38223;50.940;4.034;2022-08-16T08:15:54;10.05;;;8.35;;
52266;SDS011;38223;50.940;4.034;2022-08-16T08:18:29;8.73;;;7.90;;
52266;SDS011;38223;50.940;4.034;2022-08-16T08:21:00;10.53;;;7.42;;
52266;SDS011;38223;50.940;4.034;2022-08-16T08:23:37;11.40;;;7.03;;
52266;SDS011;38223;50.940;4.034;2022-08-16T08:26:07;9.13;;;7.08;;
52266;SDS011;38223;50.940;4.034;2022-08-16T08:28:39;7.15;;;6.33;;
52266;SDS011;38223;50.940;4.034;2022-08-16T08:31:11;9.05;;;7.67;;
52266;SDS011;38223;50.940;4.034;2022-08-16T08:33:44;7.95;;;6.42;;
52266;SDS011;38223;50.940;4.034;2022-08-16T08:36:16;15.65;;;7.30;;
52266;SDS011;38223;50.940;4.034;2022-08-16T08:38:56;10.70;;;6.78;;
52266;SDS011;38223;50.940;4.034;2022-08-16T08:41:28;9.80;;;5.50;;
52266;SDS011;38223;50.940;4.034;2022-08-16T08:44:00;8.80;;;5.50;;
52266;SDS011;38223;50.940;4.034;2022-08-16T08:46:33;9.78;;;5.80;;
52266;SDS011;38223;50.940;4.034;2022-08-16T08:49:10;9.70;;;6.12;;
52266;SDS011;38223;50.940;4.034;2022-08-16T08:51:38;5.85;;;4.90;;
52266;SDS011;38223;50.940;4.034;2022-08-16T08:54:10;7.72;;;5.20;;
52266;SDS011;38223;50.940;4.034;2022-08-16T08:56:39;11.70;;;5.92;;
52266;SDS011;38223;50.940;4.034;2022-08-16T08:59:10;10.80;;;5.47;;
52266;SDS011;38223;50.940;4.034;2022-08-16T09:01:46;8.85;;;5.60;;
52266;SDS011;38223;50.940;4.034;2022-08-16T09:04:21;7.37;;;4.75;;
52266;SDS011;38223;50.940;4.034;2022-08-16T09:06:53;6.72;;;4.95;;
52266;SDS011;38223;50.940;4.034;2022-08-16T09:09:26;8.43;;;4.65;;
52266;SDS011;38223;50.940;4.034;2022-08-16T09:11:56;9.40;;;5.00;;
52266;SDS011;38223;50.940;4.034;2022-08-16T09:14:31;7.78;;;4.62;;
52266;SDS011;38223;50.940;4.034;2022-08-16T09:17:02;5.92;;;4.33;;
52266;SDS011;38223;50.940;4.034;2022-08-16T09:19:35;5.55;;;4.83;;
52266;SDS011;38223;50.940;4.034;2022-08-16T09:22:05;13.20;;;5.28;;
52266;SDS011;38223;50.940;4.034;2022-08-16T09:24:37;6.10;;;4.62;;
52266;SDS011;38223;50.940;4.034;2022-08-16T09:27:11;5.85;;;4.12;;
52266;SDS011;38223;50.940;4.034;2022-08-16T09:29:44;7.78;;;4.87;;
52266;SDS011;38223;50.940;4.034;2022-08-16T09:32:13;6.33;;;4.67;;
52266;SDS011;38223;50.940;4.034;2022-08-16T09:34:46;5.12;;;4.62;;
52266;SDS011;38223;50.940;4.034;2022-08-16T09:37:14;5.55;;;4.50;;
52266;SDS011;38223;50.940;4.034;2022-08-16T09:39:46;6.15;;;4.78;;
52266;SDS011;38223;50.940;4.034;2022-08-16T09:42:18;7.37;;;5.15;;
52266;SDS011;38223;50.940;4.034;2022-08-16T09:44:49;7.08;;;5.00;;
52266;SDS011;38223;50.940;4.034;2022-08-16T09:47:19;6.67;;;5.28;;
52266;SDS011;38223;50.940;4.034;2022-08-16T09:49:51;6.08;;;5.22;;
52266;SDS011;38223;50.940;4.034;2022-08-16T09:52:22;6.08;;;4.30;;
52266;SDS011;38223;50.940;4.034;2022-08-16T09:55:07;4.78;;;4.00;;
52266;SDS011;38223;50.940;4.034;2022-08-16T09:57:42;5.47;;;4.83;;
52266;SDS011;38223;50.940;4.034;2022-08-16T10:00:14;7.47;;;4.05;;
52266;SDS011;38223;50.940;4.034;2022-08-16T10:02:45;16.37;;;5.35;;
52266;SDS011;38223;50.940;4.034;2022-08-16T10:05:15;8.18;;;4.50;;
52266;SDS011;38223;50.940;4.034;2022-08-16T10:07:46;9.25;;;4.17;;
52266;SDS011;38223;50.940;4.034;2022-08-16T10:13:05;4.20;;;3.70;;
52266;SDS011;38223;50.940;4.034;2022-08-16T10:18:31;7.83;;;4.75;;
52266;SDS011;38223;50.940;4.034;2022-08-16T10:21:04;4.55;;;3.98;;
52266;SDS011;38223;50.940;4.034;2022-08-16T10:23:35;8.70;;;4.33;;
52266;SDS011;38223;50.940;4.034;2022-08-16T10:26:06;6.80;;;4.08;;
52266;SDS011;38223;50.940;4.034;2022-08-16T10:28:55;8.85;;;4.25;;
52266;SDS011;38223;50.940;4.034;2022-08-16T10:31:34;6.15;;;4.50;;
52266;SDS011;38223;50.940;4.034;2022-08-16T10:34:03;4.42;;;3.90;;
52266;SDS011;38223;50.940;4.034;2022-08-16T10:36:32;5.83;;;3.72;;
52266;SDS011;38223;50.940;4.034;2022-08-16T10:39:03;7.05;;;4.37;;
52266;SDS011;38223;50.940;4.034;2022-08-16T10:41:36;11.53;;;4.80;;
52266;SDS011;38223;50.940;4.034;2022-08-16T10:44:06;7.15;;;4.42;;
52266;SDS011;38223;50.940;4.034;2022-08-16T10:46:40;7.45;;;3.95;;
52266;SDS011;38223;50.940;4.034;2022-08-16T10:49:11;9.00;;;4.15;;
52266;SDS011;38223;50.940;4.034;2022-08-16T10:51:43;5.22;;;3.83;;
52266;SDS011;38223;50.940;4.034;2022-08-16T10:54:14;5.08;;;3.90;;
52266;SDS011;38223;50.940;4.034;2022-08-16T10:56:44;10.50;;;4.50;;
52266;SDS011;38223;50.940;4.034;2022-08-16T10:59:15;4.70;;;4.25;;
52266;SDS011;38223;50.940;4.034;2022-08-16T11:01:51;7.22;;;4.37;;
52266;SDS011;38223;50.940;4.034;2022-08-16T11:04:21;4.37;;;3.55;;
52266;SDS011;38223;50.940;4.034;2022-08-16T11:06:51;4.83;;;3.45;;
52266;SDS011;38223;50.940;4.034;2022-08-16T11:09:23;6.08;;;3.98;;
52266;SDS011;38223;50.940;4.034;2022-08-16T11:11:55;6.53;;;3.83;;
52266;SDS011;38223;50.940;4.034;2022-08-16T11:14:29;8.33;;;4.33;;
52266;SDS011;38223;50.940;4.034;2022-08-16T11:17:01;10.48;;;4.62;;
52266;SDS011;38223;50.940;4.034;2022-08-16T11:19:35;9.03;;;4.17;;
52266;SDS011;38223;50.940;4.034;2022-08-16T11:22:06;5.40;;;3.33;;
52266;SDS011;38223;50.940;4.034;2022-08-16T11:24:35;9.05;;;3.37;;
52266;SDS011;38223;50.940;4.034;2022-08-16T11:27:06;6.33;;;3.40;;
52266;SDS011;38223;50.940;4.034;2022-08-16T11:29:41;13.85;;;3.27;;
52266;SDS011;38223;50.940;4.034;2022-08-16T11:32:14;9.38;;;3.37;;
52266;SDS011;38223;50.940;4.034;2022-08-16T11:34:48;6.50;;;3.20;;
52266;SDS011;38223;50.940;4.034;2022-08-16T11:37:24;5.25;;;2.75;;
52266;SDS011;38223;50.940;4.034;2022-08-16T11:39:53;6.97;;;3.17;;
52266;SDS011;38223;50.940;4.034;2022-08-16T11:42:31;5.12;;;3.33;;
52266;SDS011;38223;50.940;4.034;2022-08-16T11:44:59;7.70;;;3.08;;
52266;SDS011;38223;50.940;4.034;2022-08-16T11:47:37;7.50;;;3.20;;
52266;SDS011;38223;50.940;4.034;2022-08-16T11:50:06;3.65;;;3.20;;
52266;SDS011;38223;50.940;4.034;2022-08-16T11:52:39;4.50;;;3.00;;
52266;SDS011;38223;50.940;4.034;2022-08-16T11:55:13;4.70;;;3.12;;
52266;SDS011;38223;50.940;4.034;2022-08-16T11:57:45;4.33;;;2.40;;
52266;SDS011;38223;50.940;4.034;2022-08-16T12:00:16;5.37;;;2.90;;
52266;SDS011;38223;50.940;4.034;2022-08-16T12:02:48;5.65;;;2.75;;
52266;SDS011;38223;50.940;4.034;2022-08-16T12:05:21;5.33;;;3.08;;
52266;SDS011;38223;50.940;4.034;2022-08-16T12:07:54;4.97;;;3.00;;
52266;SDS011;38223;50.940;4.034;2022-08-16T12:10:27;8.80;;;3.27;;
52266;SDS011;38223;50.940;4.034;2022-08-16T12:13:00;4.72;;;3.02;;
52266;SDS011;38223;50.940;4.034;2022-08-16T12:15:32;7.22;;;3.50;;
52266;SDS011;38223;50.940;4.034;2022-08-16T12:18:08;5.22;;;3.27;;
52266;SDS011;38223;50.940;4.034;2022-08-16T12:20:38;8.80;;;3.30;;
52266;SDS011;38223;50.940;4.034;2022-08-16T12:23:15;4.60;;;3.55;;
52266;SDS011;38223;50.940;4.034;2022-08-16T12:25:45;5.08;;;3.35;;
52266;SDS011;38223;50.940;4.034;2022-08-16T12:28:18;9.15;;;3.40;;
52266;SDS011;38223;50.940;4.034;2022-08-16T12:30:50;5.85;;;3.52;;
52266;SDS011;38223;50.940;4.034;2022-08-16T12:33:20;7.53;;;3.17;;
52266;SDS011;38223;50.940;4.034;2022-08-16T12:35:49;5.33;;;2.95;;
52266;SDS011;38223;50.940;4.034;2022-08-16T12:40:48;4.67;;;3.25;;
52266;SDS011;38223;50.940;4.034;2022-08-16T12:43:26;8.13;;;3.20;;
52266;SDS011;38223;50.940;4.034;2022-08-16T12:45:56;7.78;;;2.90;;
52266;SDS011;38223;50.940;4.034;2022-08-16T12:48:29;6.20;;;3.25;;
52266;SDS011;38223;50.940;4.034;2022-08-16T12:51:19;5.30;;;3.55;;
52266;SDS011;38223;50.940;4.034;2022-08-16T12:53:53;5.87;;;3.00;;
52266;SDS011;38223;50.940;4.034;2022-08-16T12:56:29;9.18;;;3.30;;
52266;SDS011;38223;50.940;4.034;2022-08-16T12:58:58;6.72;;;3.60;;
52266;SDS011;38223;50.940;4.034;2022-08-16T13:01:34;4.67;;;2.87;;
52266;SDS011;38223;50.940;4.034;2022-08-16T13:04:09;7.50;;;3.65;;
52266;SDS011;38223;50.940;4.034;2022-08-16T13:06:41;4.60;;;3.02;;
52266;SDS011;38223;50.940;4.034;2022-08-16T13:09:11;5.12;;;3.02;;
52266;SDS011;38223;50.940;4.034;2022-08-16T13:11:54;5.85;;;3.40;;
52266;SDS011;38223;50.940;4.034;2022-08-16T13:14:33;4.37;;;3.30;;
52266;SDS011;38223;50.940;4.034;2022-08-16T13:17:05;3.95;;;3.55;;
52266;SDS011;38223;50.940;4.034;2022-08-16T13:19:40;4.37;;;3.40;;
52266;SDS011;38223;50.940;4.034;2022-08-16T13:22:11;7.30;;;3.55;;
52266;SDS011;38223;50.940;4.034;2022-08-16T13:24:45;13.20;;;3.47;;
52266;SDS011;38223;50.940;4.034;2022-08-16T13:27:15;7.50;;;3.77;;
52266;SDS011;38223;50.940;4.034;2022-08-16T13:29:49;10.53;;;3.60;;
52266;SDS011;38223;50.940;4.034;2022-08-16T13:32:21;12.55;;;3.45;;
52266;SDS011;38223;50.940;4.034;2022-08-16T13:34:53;6.33;;;4.05;;
52266;SDS011;38223;50.940;4.034;2022-08-16T13:37:25;5.22;;;3.35;;
52266;SDS011;38223;50.940;4.034;2022-08-16T13:39:58;5.50;;;3.70;;
52266;SDS011;38223;50.940;4.034;2022-08-16T13:42:28;6.92;;;3.87;;
52266;SDS011;38223;50.940;4.034;2022-08-16T13:45:03;3.83;;;3.35;;
52266;SDS011;38223;50.940;4.034;2022-08-16T13:47:37;6.58;;;3.70;;
52266;SDS011;38223;50.940;4.034;2022-08-16T13:50:09;3.87;;;3.35;;
52266;SDS011;38223;50.940;4.034;2022-08-16T13:52:47;3.83;;;3.22;;
52266;SDS011;38223;50.940;4.034;2022-08-16T13:55:25;5.55;;;3.00;;
52266;SDS011;38223;50.940;4.034;2022-08-16T13:58:00;6.12;;;3.45;;
52266;SDS011;38223;50.940;4.034;2022-08-16T14:00:37;7.80;;;3.42;;
52266;SDS011;38223;50.940;4.034;2022-08-16T14:03:07;6.12;;;3.55;;
52266;SDS011;38223;50.940;4.034;2022-08-16T14:05:38;6.25;;;3.60;;
52266;SDS011;38223;50.940;4.034;2022-08-16T14:08:11;5.85;;;4.22;;
52266;SDS011;38223;50.940;4.034;2022-08-16T14:10:45;9.35;;;4.35;;
52266;SDS011;38223;50.940;4.034;2022-08-16T14:13:17;6.53;;;3.80;;
52266;SDS011;38223;50.940;4.034;2022-08-16T14:15:50;4.67;;;4.05;;
52266;SDS011;38223;50.940;4.034;2022-08-16T14:18:25;5.53;;;3.90;;
52266;SDS011;38223;50.940;4.034;2022-08-16T14:20:55;9.20;;;4.28;;
52266;SDS011;38223;50.940;4.034;2022-08-16T14:23:26;5.97;;;3.72;;
52266;SDS011;38223;50.940;4.034;2022-08-16T14:26:00;6.03;;;3.92;;
52266;SDS011;38223;50.940;4.034;2022-08-16T14:28:35;3.95;;;3.65;;
52266;SDS011;38223;50.940;4.034;2022-08-16T14:31:07;8.68;;;4.33;;
52266;SDS011;38223;50.940;4.034;2022-08-16T14:33:36;5.33;;;4.10;;
52266;SDS011;38223;50.940;4.034;2022-08-16T14:36:11;5.55;;;3.42;;
52266;SDS011;38223;50.940;4.034;2022-08-16T14:38:43;6.03;;;4.20;;
52266;SDS011;38223;50.940;4.034;2022-08-16T14:43:40;8.08;;;4.05;;
52266;SDS011;38223;50.940;4.034;2022-08-16T14:46:16;6.05;;;3.72;;
52266;SDS011;38223;50.940;4.034;2022-08-16T14:48:51;5.70;;;4.42;;
52266;SDS011;38223;50.940;4.034;2022-08-16T14:51:23;6.15;;;4.15;;
52266;SDS011;38223;50.940;4.034;2022-08-16T14:53:55;6.60;;;3.98;;
52266;SDS011;38223;50.940;4.034;2022-08-16T14:56:27;5.65;;;4.22;;
52266;SDS011;38223;50.940;4.034;2022-08-16T14:58:57;5.45;;;4.47;;
52266;SDS011;38223;50.940;4.034;2022-08-16T15:01:27;10.05;;;4.25;;
52266;SDS011;38223;50.940;4.034;2022-08-16T15:04:01;8.53;;;4.53;;
52266;SDS011;38223;50.940;4.034;2022-08-16T15:06:33;6.47;;;4.10;;
52266;SDS011;38223;50.940;4.034;2022-08-16T15:09:05;9.48;;;4.65;;
52266;SDS011;38223;50.940;4.034;2022-08-16T15:11:41;6.90;;;4.60;;
52266;SDS011;38223;50.940;4.034;2022-08-16T15:14:15;9.40;;;4.22;;
52266;SDS011;38223;50.940;4.034;2022-08-16T15:16:53;5.53;;;4.10;;
52266;SDS011;38223;50.940;4.034;2022-08-16T15:19:22;5.35;;;4.03;;
52266;SDS011;38223;50.940;4.034;2022-08-16T15:21:58;6.85;;;4.95;;
52266;SDS011;38223;50.940;4.034;2022-08-16T15:24:30;4.95;;;4.08;;
52266;SDS011;38223;50.940;4.034;2022-08-16T15:27:03;5.55;;;4.60;;
52266;SDS011;38223;50.940;4.034;2022-08-16T15:29:38;7.70;;;4.40;;